Time;durP1;ratioP1;P1;durP2;ratioP2;P2;SDS_P1;SDS_P2;PMS_P1;PMS_P2;Temp;Humidity;BMP_temperature;BMP_pressure;BME280_temperature;BME280_humidity;BME280_pressure;Samples;Min_cycle;Max_cycle;Signal;HPM_P1;HPM_P2
2022/04/14 00:01:39;;;;;;;27.63;21.85;;;;;;;13.45;84.81;101384.94;5038609;28;20069;-80
2022/04/14 00:04:05;;;;;;;30.95;23.92;;;;;;;13.49;84.67;101370.50;5037823;28;20054;-82
2022/04/14 00:06:33;;;;;;;30.65;22.58;;;;;;;13.36;85.32;101379.78;5037296;28;20485;-80
2022/04/14 00:08:59;;;;;;;32.85;22.80;;;;;;;13.27;85.59;101381.53;5037303;28;20053;-80
2022/04/14 00:11:28;;;;;;;33.00;23.25;;;;;;;13.34;85.58;101377.31;5037663;28;20141;-80
2022/04/14 00:13:54;;;;;;;34.33;24.40;;;;;;;13.26;85.94;101379.88;5071904;22;20140;-79
2022/04/14 00:16:21;;;;;;;30.17;23.25;;;;;;;13.22;86.46;101381.22;5053751;28;20045;-79
2022/04/14 00:18:48;;;;;;;37.33;25.75;;;;;;;13.19;86.52;101378.88;5053135;28;20132;-79
2022/04/14 00:21:15;;;;;;;34.75;24.73;;;;;;;13.17;86.84;101381.66;5053615;28;20140;-80
2022/04/14 00:23:41;;;;;;;31.73;25.75;;;;;;;13.17;87.07;101381.66;5054116;28;20049;-79
2022/04/14 00:26:08;;;;;;;40.00;27.55;;;;;;;13.06;87.77;101373.19;5053787;28;20049;-78
2022/04/14 00:28:36;;;;;;;40.42;29.15;;;;;;;13.21;87.81;101371.66;5051164;28;20355;-78
2022/04/14 00:31:04;;;;;;;42.30;30.73;;;;;;;13.02;88.23;101372.66;5052453;28;20055;-78
2022/04/14 00:33:31;;;;;;;39.35;28.45;;;;;;;13.07;88.57;101369.56;5052428;28;20139;-79
2022/04/14 00:35:57;;;;;;;39.88;29.63;;;;;;;13.00;88.88;101363.28;5052714;28;20067;-79
2022/04/14 00:38:24;;;;;;;40.08;29.17;;;;;;;12.90;89.58;101371.25;5052166;28;20083;-80
2022/04/14 00:40:52;;;;;;;40.95;29.00;;;;;;;12.91;89.70;101365.84;5054102;28;20080;-80
2022/04/14 00:43:19;;;;;;;43.28;30.20;;;;;;;12.91;90.09;101371.09;5053402;28;20239;-79
2022/04/14 00:45:49;;;;;;;42.05;30.67;;;;;;;12.91;90.24;101368.47;5053385;28;20061;-79
2022/04/14 00:48:16;;;;;;;44.28;32.17;;;;;;;12.94;90.07;101364.72;5053208;28;20079;-79
2022/04/14 00:50:42;;;;;;;48.13;32.83;;;;;;;12.75;90.89;101363.13;5053247;28;20060;-79
2022/04/14 00:53:12;;;;;;;43.40;30.80;;;;;;;12.82;90.94;101361.50;5051124;28;20076;-77
2022/04/14 00:55:39;;;;;;;48.13;33.72;;;;;;;12.74;90.88;101353.59;5055473;28;20041;-80
2022/04/14 00:58:05;;;;;;;49.25;32.47;;;;;;;12.77;91.07;101362.94;5054639;28;20364;-78
2022/04/14 01:00:32;;;;;;;43.90;30.88;;;;;;;12.65;91.74;101358.91;5054485;28;20132;-78
2022/04/14 01:03:19;;;;;;;45.65;30.45;;;;;;;12.65;91.94;101357.13;5057117;28;20045;-79
2022/04/14 01:05:56;;;;;;;50.10;32.75;;;;;;;12.55;92.16;101354.56;5057311;28;20057;-80
2022/04/14 01:08:30;;;;;;;45.78;31.60;;;;;;;12.61;91.92;101358.41;5057366;28;20063;-79
2022/04/14 01:11:00;;;;;;;41.83;30.33;;;;;;;12.56;92.08;101350.97;5057882;28;20045;-79
2022/04/14 01:13:57;;;;;;;46.42;30.88;;;;;;;12.67;91.66;101362.22;5057363;28;20419;-78
2022/04/14 01:16:29;;;;;;;46.03;30.20;;;;;;;12.57;91.65;101347.38;5057805;28;20481;-79
2022/04/14 01:19:03;;;;;;;41.90;29.58;;;;;;;12.71;91.59;101364.41;5059055;28;20135;-80
2022/04/14 01:21:58;;;;;;;45.08;28.98;;;;;;;12.55;91.59;101354.56;5053423;28;20127;-78
2022/04/14 01:24:41;;;;;;;40.20;28.98;;;;;;;12.69;91.38;101361.09;5057451;28;20052;-79
2022/04/14 01:27:50;;;;;;;40.17;28.58;;;;;;;12.50;91.89;101348.13;5057069;28;20068;-80
2022/04/14 01:30:17;;;;;;;42.42;28.65;;;;;;;12.63;91.86;101356.44;4985249;28;20049;-81
2022/04/14 01:32:48;;;;;;;41.80;28.83;;;;;;;12.56;92.15;101355.41;5057642;28;20045;-78
2022/04/14 01:35:16;;;;;;;43.22;29.45;;;;;;;12.45;92.07;101342.50;5058075;28;20131;-79
2022/04/14 01:37:43;;;;;;;42.58;29.23;;;;;;;12.57;92.31;101378.88;5057692;28;20049;-79
2022/04/14 01:40:12;;;;;;;39.95;29.02;;;;;;;12.49;92.67;101375.34;5057512;28;20258;-79
2022/04/14 01:42:39;;;;;;;43.70;30.50;;;;;;;12.49;92.89;101370.09;5056813;28;20049;-78
2022/04/14 01:45:07;;;;;;;43.90;30.08;;;;;;;12.65;92.42;101382.56;5056634;28;20059;-79
2022/04/14 01:47:41;;;;;;;50.55;31.45;;;;;;;12.55;92.85;101372.94;5055998;28;20215;-79
2022/04/14 01:50:12;;;;;;;45.55;32.50;;;;;;;12.48;93.25;101381.56;5055982;28;20071;-80
2022/04/14 01:52:44;;;;;;;50.05;33.40;;;;;;;12.41;93.82;101378.72;5056381;28;20053;-79
2022/04/14 01:55:12;;;;;;;50.17;33.03;;;;;;;12.48;93.78;101384.19;5056613;28;20112;-77
2022/04/14 01:57:39;;;;;;;49.95;35.42;;;;;;;12.43;93.93;101386.44;5057207;28;20049;-78
2022/04/14 02:00:13;;;;;;;49.95;33.45;;;;;;;12.43;93.75;101389.06;5055863;28;20079;-79
2022/04/14 02:02:40;;;;;;;47.92;33.85;;;;;;;12.43;93.92;101386.44;5056003;28;20057;-78
2022/04/14 02:05:07;;;;;;;56.08;36.00;;;;;;;12.49;93.81;101391.91;5056110;28;20052;-79
2022/04/14 02:07:35;;;;;;;52.25;33.75;;;;;;;12.47;93.88;101382.53;5056780;28;20128;-79
2022/04/14 02:10:03;;;;;;;47.35;32.97;;;;;;;12.49;93.71;101384.03;5055849;28;20835;-78
2022/04/14 02:12:36;;;;;;;46.33;34.10;;;;;;;12.32;94.27;101378.78;5056263;28;20061;-79
2022/04/14 02:15:04;;;;;;;48.72;34.17;;;;;;;12.29;94.82;101380.72;5056223;28;20049;-79
2022/04/14 02:17:31;;;;;;;52.95;32.47;;;;;;;12.39;94.18;101375.41;5056133;28;20048;-79
2022/04/14 02:19:57;;;;;;;45.50;31.48;;;;;;;12.39;94.25;101382.47;5055563;28;20069;-79
2022/04/14 02:22:27;;;;;;;50.78;32.70;;;;;;;12.37;94.70;101371.28;5055619;28;20048;-79
2022/04/14 02:24:57;;;;;;;51.72;33.10;;;;;;;12.27;94.86;101368.75;5056013;28;20076;-79
2022/04/14 02:27:25;;;;;;;47.83;33.08;;;;;;;12.28;94.80;101379.09;5056116;28;20521;-79
2022/04/14 02:29:53;;;;;;;48.38;32.10;;;;;;;12.25;95.20;101370.72;5055747;28;20059;-79
2022/04/14 02:32:19;;;;;;;49.38;32.90;;;;;;;12.15;95.45;101362.91;5056498;28;20049;-79
2022/04/14 02:34:48;;;;;;;49.15;33.03;;;;;;;12.23;95.68;101365.59;5055885;28;20140;-78
2022/04/14 02:37:14;;;;;;;46.75;31.63;;;;;;;12.28;95.13;101358.13;5056396;28;20462;-79
2022/04/14 02:39:41;;;;;;;44.38;31.05;;;;;;;12.37;94.73;101363.41;5055594;28;20056;-80
2022/04/14 02:42:08;;;;;;;46.38;32.63;;;;;;;12.36;94.99;101359.97;5056623;28;20485;-77
2022/04/14 02:44:36;;;;;;;49.88;33.65;;;;;;;12.38;94.78;101358.00;5053057;28;20148;-79
2022/04/14 02:47:08;;;;;;;50.95;34.10;;;;;;;12.29;95.03;101359.72;5055122;28;20041;-80
2022/04/14 02:49:42;;;;;;;46.72;32.17;;;;;;;12.34;95.02;101354.03;5054729;28;20049;-80
2022/04/14 02:52:18;;;;;;;55.60;35.25;;;;;;;12.28;95.12;101347.63;5055661;28;20049;-78
2022/04/14 02:54:47;;;;;;;53.03;35.58;;;;;;;12.30;95.48;101350.06;5058474;28;20478;-79
2022/04/14 02:57:18;;;;;;;52.45;35.70;;;;;;;12.13;95.16;101328.09;5060985;28;20049;-79
2022/04/14 03:00:06;;;;;;;50.03;33.83;;;;;;;12.15;95.58;101323.53;5059335;28;20435;-80
2022/04/14 03:02:52;;;;;;;50.53;36.80;;;;;;;12.20;94.96;101328.34;5054285;28;20106;-78
2022/04/14 03:05:24;;;;;;;54.95;35.83;;;;;;;12.24;94.78;101321.81;5049759;28;20085;-78
2022/04/14 03:07:51;;;;;;;55.05;36.40;;;;;;;12.19;94.66;101327.53;5052467;28;20084;-76
2022/04/14 03:10:24;;;;;;;48.47;34.50;;;;;;;12.28;95.25;101344.16;5052611;28;20146;-78
2022/04/14 03:12:53;;;;;;;50.92;35.15;;;;;;;12.18;95.48;101331.13;5052457;28;20136;-79
2022/04/14 03:15:24;;;;;;;52.55;36.50;;;;;;;12.28;95.39;101347.63;5054681;28;20545;-79
2022/04/14 03:17:59;;;;;;;52.67;34.58;;;;;;;12.27;95.79;101343.34;5052137;28;20131;-79
2022/04/14 03:20:38;;;;;;;53.63;35.28;;;;;;;12.17;95.57;101333.88;5055386;28;20060;-79
2022/04/14 03:23:06;;;;;;;55.28;36.30;;;;;;;12.22;95.47;101345.59;5054922;28;20099;-79
2022/04/14 03:25:35;;;;;;;53.13;36.28;;;;;;;12.19;95.86;101351.13;5054887;28;20045;-79
2022/04/14 03:28:11;;;;;;;62.28;45.42;;;;;;;12.37;95.05;101345.03;5054961;28;20060;-80
2022/04/14 03:30:37;;;;;;;57.88;42.33;;;;;;;12.29;94.92;101357.09;5054822;28;20057;-79
2022/04/14 03:33:23;;;;;;;56.72;42.63;;;;;;;12.15;95.65;101351.56;5055008;28;20474;-78
2022/04/14 03:35:54;;;;;;;55.67;37.90;;;;;;;12.09;95.82;101352.16;5055418;28;20049;-79
2022/04/14 03:38:22;;;;;;;58.53;39.90;;;;;;;12.08;95.65;101350.50;5054414;28;20049;-79
2022/04/14 03:40:52;;;;;;;52.15;36.22;;;;;;;12.06;95.96;101355.09;5054590;28;20095;-78
2022/04/14 03:43:26;;;;;;;53.80;36.38;;;;;;;12.02;95.72;101356.34;5054813;28;20517;-78
2022/04/14 03:45:59;;;;;;;52.47;36.20;;;;;;;11.93;96.15;101358.88;5055019;28;20049;-79
2022/04/14 03:48:32;;;;;;;57.33;37.65;;;;;;;11.91;96.93;101362.63;5054581;28;20108;-80
2022/04/14 03:50:58;;;;;;;65.65;37.53;;;;;;;11.92;96.75;101367.72;5055411;28;20057;-81
2022/04/14 03:53:30;;;;;;;60.67;37.10;;;;;;;11.93;96.86;101358.88;5054243;28;20045;-80
2022/04/14 03:56:00;;;;;;;60.60;40.17;;;;;;;12.05;96.79;101372.63;5054982;28;20057;-79
2022/04/14 03:58:36;;;;;;;63.13;39.00;;;;;;;12.00;97.24;101367.00;5054288;28;20283;-79
2022/04/14 04:01:05;;;;;;;69.90;41.55;;;;;;;11.95;97.38;101350.84;5055040;28;20080;-81
2022/04/14 04:03:38;;;;;;;66.55;42.58;;;;;;;12.06;97.84;101358.53;5054626;28;20049;-79
2022/04/14 04:06:10;;;;;;;69.65;42.42;;;;;;;12.11;97.75;101351.03;5054638;28;20477;-80
2022/04/14 04:08:37;;;;;;;66.60;42.75;;;;;;;12.10;97.46;101338.06;5054863;28;20203;-80
2022/04/14 04:11:06;;;;;;;65.13;42.33;;;;;;;12.19;97.58;101363.44;5054454;28;20060;-79
2022/04/14 04:13:41;;;;;;;66.53;43.60;;;;;;;12.05;97.54;101341.13;5054004;28;20057;-79
2022/04/14 04:16:11;;;;;;;75.25;46.28;;;;;;;12.10;98.20;101365.13;5055285;28;20115;-79
2022/04/14 04:18:58;;;;;;;75.10;47.00;;;;;;;12.10;98.30;101370.38;5054592;28;20164;-80
2022/04/14 04:21:29;;;;;;;83.72;48.38;;;;;;;12.18;98.12;101373.09;5055471;28;20049;-79
2022/04/14 04:24:06;;;;;;;80.80;48.70;;;;;;;12.17;97.99;101381.13;5056187;28;20049;-79
2022/04/14 04:26:36;;;;;;;87.82;48.85;;;;;;;12.00;98.29;101364.38;5059334;28;20045;-80
2022/04/14 04:29:07;;;;;;;84.03;49.92;;;;;;;11.92;99.41;101372.97;5055463;28;20083;-78
2022/04/14 04:31:44;;;;;;;80.55;49.53;;;;;;;12.15;99.27;101390.94;5058984;28;20060;-79
2022/04/14 04:34:17;;;;;;;86.57;51.55;;;;;;;12.18;98.75;101388.84;5058489;28;20105;-79
2022/04/14 04:36:43;;;;;;;;;;;;;;;12.13;99.39;101390.25;5058551;28;20380;-79
2022/04/14 04:39:13;;;;;;;90.28;51.40;;;;;;;11.99;99.52;101393.34;5058087;28;19975;-80
2022/04/14 04:41:52;;;;;;;92.35;51.45;;;;;;;12.10;100.00;101401.03;5058094;28;20049;-80
2022/04/14 04:47:40;;;;;;;99.20;52.13;;;;;;;11.87;100.00;101395.34;5056717;28;20519;-79
2022/04/14 04:50:22;;;;;;;91.68;52.13;;;;;;;12.04;100.00;101396.38;5057906;28;20429;-80
2022/04/14 04:52:51;;;;;;;91.15;52.92;;;;;;;12.02;100.00;101406.19;5057280;28;20064;-80
2022/04/14 04:55:27;;;;;;;101.90;54.05;;;;;;;11.98;100.00;101397.78;5056995;28;20075;-79
2022/04/14 04:58:01;;;;;;;100.10;53.42;;;;;;;11.95;100.00;101408.56;5057568;28;20135;-78
2022/04/14 05:00:33;;;;;;;92.40;51.65;;;;;;;11.95;100.00;101403.31;5058468;28;20083;-79
2022/04/14 05:03:00;;;;;;;92.45;50.80;;;;;;;11.94;100.00;101417.41;5058249;28;20524;-79
2022/04/14 05:05:30;;;;;;;95.25;53.63;;;;;;;11.96;100.00;101424.16;5057525;28;20454;-80
2022/04/14 05:07:56;;;;;;;93.32;50.78;;;;;;;11.89;100.00;101412.59;5056768;28;20087;-79
2022/04/14 05:10:33;;;;;;;92.90;51.33;;;;;;;11.86;100.00;101425.16;5058081;28;20132;-79
2022/04/14 05:13:13;;;;;;;91.13;50.45;;;;;;;11.88;100.00;101423.22;5057546;28;20095;-79
2022/04/14 05:15:49;;;;;;;95.15;50.42;;;;;;;11.92;100.00;101429.84;5057025;28;20056;-78
2022/04/14 05:18:50;;;;;;;96.95;51.85;;;;;;;11.87;100.00;101421.56;5056964;28;20518;-79
2022/04/14 05:24:27;;;;;;;100.32;50.83;;;;;;;11.89;100.00;101422.25;5056884;28;20065;-80
2022/04/14 05:27:04;;;;;;;100.45;52.40;;;;;;;11.86;100.00;101412.06;5058553;28;20049;-80
2022/04/14 05:29:35;;;;;;;95.50;51.20;;;;;;;11.78;100.00;101401.50;5057774;28;20056;-80
2022/04/14 05:32:10;;;;;;;102.63;51.70;;;;;;;11.80;100.00;101408.25;5058699;28;20435;-79
2022/04/14 05:34:46;;;;;;;90.80;49.58;;;;;;;11.86;100.00;101419.91;5058325;28;20306;-79
2022/04/14 05:37:16;;;;;;;96.55;52.25;;;;;;;12.00;100.00;101431.72;5059238;28;20044;-79
2022/04/14 05:39:56;;;;;;;96.82;51.30;;;;;;;11.95;100.00;101434.78;5057185;28;20099;-79
2022/04/14 05:42:55;;;;;;;94.07;51.60;;;;;;;11.98;100.00;101431.06;5058284;28;20088;-79
2022/04/14 05:46:03;;;;;;;91.10;50.40;;;;;;;12.05;100.00;101440.00;5058806;28;20131;-80
2022/04/14 05:48:41;;;;;;;92.72;49.05;;;;;;;12.07;100.00;101445.91;5057772;28;20195;-80
2022/04/14 05:51:12;;;;;;;95.30;50.13;;;;;;;12.09;100.00;101430.88;5058006;28;20365;-80
2022/04/14 05:53:41;;;;;;;90.43;50.45;;;;;;;11.95;100.00;101440.03;5058021;28;20061;-80
2022/04/14 05:56:10;;;;;;;92.13;50.63;;;;;;;11.95;100.00;101430.38;5058042;28;20049;-80
2022/04/14 05:59:06;;;;;;;94.93;48.97;;;;;;;12.02;100.00;101442.91;5058090;28;20044;-80
2022/04/14 06:04:51;;;;;;;80.43;43.35;;;;;;;11.96;99.98;101431.19;5056100;28;20484;-79
2022/04/14 06:07:46;;;;;;;77.95;41.88;;;;;;;11.99;98.95;101433.53;5058383;28;20063;-81
2022/04/14 06:10:19;;;;;;;71.60;39.97;;;;;;;12.01;98.60;101455.19;5057549;28;20132;-79
2022/04/14 06:12:46;;;;;;;72.53;39.08;;;;;;;11.98;98.40;101455.50;5072501;22;20045;-84
2022/04/14 06:15:13;;;;;;;65.88;38.90;;;;;;;11.97;98.23;101459.06;5043265;28;20124;-83
2022/04/14 06:17:48;;;;;;;64.68;37.67;;;;;;;12.01;98.16;101455.19;5061344;28;20048;-82
2022/04/14 06:20:19;;;;;;;56.08;34.17;;;;;;;12.09;97.26;101452.69;5064606;28;20052;-82
2022/04/14 06:22:46;;;;;;;61.22;35.17;;;;;;;12.17;97.36;101455.41;5063624;28;20048;-84
2022/04/14 06:25:17;;;;;;;61.45;35.13;;;;;;;12.17;96.67;101454.56;5064010;28;20041;-83
2022/04/14 06:27:46;;;;;;;57.47;34.97;;;;;;;12.11;97.35;101466.47;5065827;28;20105;-80
2022/04/14 06:30:18;;;;;;;58.55;34.00;;;;;;;12.23;97.07;101470.56;5065811;28;20059;-83
2022/04/14 06:32:55;;;;;;;65.60;34.73;;;;;;;12.35;96.29;101476.41;5061467;28;20053;-83
2022/04/14 06:35:22;;;;;;;66.55;33.55;;;;;;;12.35;96.45;101478.22;5059709;28;20120;-82
2022/04/14 06:37:49;;;;;;;59.30;33.78;;;;;;;12.47;95.71;101477.88;5060577;28;20072;-82
2022/04/14 06:40:18;;;;;;;59.63;34.47;;;;;;;12.70;95.54;101477.47;5061284;28;20056;-82
2022/04/14 06:42:46;;;;;;;54.35;32.67;;;;;;;12.87;94.04;101474.81;5062419;28;20081;-82
2022/04/14 06:45:13;;;;;;;58.05;32.17;;;;;;;12.91;93.58;101486.69;5059488;28;20096;-82
2022/04/14 06:47:39;;;;;;;55.30;30.45;;;;;;;13.22;92.80;101476.66;5058594;28;20479;-81
2022/04/14 06:50:07;;;;;;;56.30;30.10;;;;;;;13.53;90.47;101482.28;5060632;28;20084;-84
2022/04/14 06:52:34;;;;;;;52.28;28.73;;;;;;;13.89;88.94;101495.28;5059026;28;20061;-83
2022/04/14 06:55:01;;;;;;;52.60;28.63;;;;;;;13.83;88.50;101491.47;5058642;28;20128;-85
2022/04/14 06:57:29;;;;;;;50.97;27.33;;;;;;;13.80;87.87;101490.97;5058980;28;20131;-82
2022/04/14 06:59:57;;;;;;;45.08;26.77;;;;;;;13.78;87.77;101493.75;5059027;28;20189;-83
2022/04/14 07:02:23;;;;;;;41.58;26.00;;;;;;;13.80;88.08;101499.69;5059402;28;20194;-83
2022/04/14 07:04:50;;;;;;;44.42;25.20;;;;;;;13.75;88.11;101501.94;5058994;28;20072;-82
2022/04/14 07:07:17;;;;;;;44.72;26.73;;;;;;;13.98;87.38;101501.44;5059803;28;20132;-84
2022/04/14 07:09:44;;;;;;;44.30;26.52;;;;;;;14.07;86.40;101490.78;5059426;28;20408;-85
2022/04/14 07:12:11;;;;;;;40.83;25.10;;;;;;;14.14;86.50;101502.34;5059467;28;20143;-83
2022/04/14 07:14:38;;;;;;;36.47;24.40;;;;;;;14.26;84.66;101501.03;5058519;28;20262;-82
2022/04/14 07:17:16;;;;;;;37.25;23.15;;;;;;;14.47;84.08;101503.31;5060547;28;20055;-82
2022/04/14 07:19:43;;;;;;;36.92;24.83;;;;;;;14.63;83.18;101504.34;5059230;28;20103;-82
2022/04/14 07:22:10;;;;;;;32.90;22.02;;;;;;;14.57;82.14;101503.16;5059213;28;20052;-83
2022/04/14 07:24:37;;;;;;;36.65;22.35;;;;;;;14.69;82.08;101496.59;5058751;28;20514;-84
2022/04/14 07:27:04;;;;;;;38.50;23.13;;;;;;;14.73;82.12;101500.56;5059026;28;20085;-84
2022/04/14 07:29:31;;;;;;;32.58;22.58;;;;;;;14.67;81.71;101495.09;5058264;28;20048;-83
2022/04/14 07:31:58;;;;;;;31.67;22.17;;;;;;;14.60;82.52;101502.84;5058241;28;20122;-83
2022/04/14 07:34:25;;;;;;;32.65;22.65;;;;;;;14.70;81.65;101505.31;5057627;28;20483;-83
2022/04/14 07:36:52;;;;;;;31.33;22.08;;;;;;;14.90;80.85;101496.97;5058669;28;20053;-83
2022/04/14 07:39:19;;;;;;;28.33;21.02;;;;;;;15.10;79.91;101500.13;5058018;28;20179;-83
2022/04/14 07:41:45;;;;;;;31.63;21.35;;;;;;;15.19;79.26;101508.81;5059737;28;20181;-82
2022/04/14 07:44:12;;;;;;;31.05;21.88;;;;;;;15.75;76.87;101509.78;5059373;28;20052;-82
2022/04/14 07:46:39;;;;;;;31.73;20.20;;;;;;;16.25;74.28;101505.00;5058807;28;20132;-81
2022/04/14 07:49:06;;;;;;;29.52;20.50;;;;;;;16.81;71.46;101497.78;5058707;28;20049;-82
2022/04/14 07:51:40;;;;;;;28.08;20.90;;;;;;;17.44;67.92;101499.28;5058860;28;20056;-82
2022/04/14 07:54:10;;;;;;;25.15;19.70;;;;;;;17.89;66.91;101510.75;5058527;28;20045;-81
2022/04/14 07:56:37;;;;;;;26.23;18.63;;;;;;;18.63;62.21;101500.88;5058825;28;20095;-82
2022/04/14 07:59:06;;;;;;;28.83;17.77;;;;;;;18.42;61.62;101495.53;5057455;28;20057;-82
2022/04/14 08:01:36;;;;;;;26.60;16.88;;;;;;;17.83;63.01;101503.53;5058337;28;20049;-83
2022/04/14 08:04:10;;;;;;;44.33;20.55;;;;;;;17.97;63.27;101512.47;5057914;28;20098;-82
2022/04/14 08:06:44;;;;;;;27.67;20.67;;;;;;;17.64;65.69;101520.72;5058701;28;20067;-82
2022/04/14 08:09:10;;;;;;;25.67;19.52;;;;;;;17.06;67.95;101510.81;5057831;28;20064;-82
2022/04/14 08:11:59;;;;;;;28.10;21.00;;;;;;;16.99;68.30;101510.72;5060518;28;20063;-85
2022/04/14 08:14:38;;;;;;;23.30;18.48;;;;;;;17.24;66.58;101508.69;5060588;28;20049;-81
2022/04/14 08:17:14;;;;;;;25.98;19.65;;;;;;;17.58;67.26;101516.16;5061183;28;20119;-83
2022/04/14 08:19:44;;;;;;;22.75;18.38;;;;;;;17.98;65.40;101508.81;5058962;28;20555;-82
2022/04/14 08:22:15;;;;;;;26.67;18.88;;;;;;;18.32;64.60;101518.84;5059369;28;20137;-81
2022/04/14 08:24:54;;;;;;;20.25;17.27;;;;;;;17.68;63.33;101505.34;5059699;28;20205;-81
2022/04/14 08:27:22;;;;;;;22.05;16.90;;;;;;;18.06;63.38;101535.19;5060035;28;20049;-83
2022/04/14 08:29:52;;;;;;;21.90;14.93;;;;;;;17.99;62.02;101513.91;5058961;28;20049;-83
2022/04/14 08:32:20;;;;;;;17.90;14.38;;;;;;;18.38;60.08;101534.00;5059333;28;20053;-82
2022/04/14 08:34:48;;;;;;;16.73;13.90;;;;;;;19.12;58.05;101516.88;5059178;28;20133;-81
2022/04/14 08:37:16;;;;;;;20.90;16.70;;;;;;;18.98;58.80;101535.50;5059901;28;20064;-81
2022/04/14 08:39:48;;;;;;;16.13;14.38;;;;;;;19.96;55.34;101521.38;5060001;28;20396;-82
2022/04/14 08:42:26;;;;;;;20.50;16.42;;;;;;;19.69;56.48;101512.44;5060935;28;20048;-82
2022/04/14 08:45:03;;;;;;;20.05;16.08;;;;;;;19.62;56.72;101528.31;5061398;28;20491;-82
2022/04/14 08:47:33;;;;;;;26.73;20.58;;;;;;;18.35;61.80;101534.38;5063042;28;20061;-82
2022/04/14 08:50:03;;;;;;;24.08;19.40;;;;;;;19.30;59.21;101523.56;5061573;28;20128;-83
2022/04/14 08:52:33;;;;;;;24.45;19.13;;;;;;;19.77;57.83;101520.25;5058812;28;20061;-81
2022/04/14 08:55:02;;;;;;;24.80;19.08;;;;;;;20.24;55.73;101521.31;5058839;28;20045;-81
2022/04/14 08:57:35;;;;;;;26.75;19.23;;;;;;;20.04;56.22;101530.00;5058212;28;20045;-82
2022/04/14 09:00:04;;;;;;;28.85;19.75;;;;;;;20.58;54.96;101529.25;5060046;28;20049;-82
2022/04/14 09:02:34;;;;;;;27.48;20.58;;;;;;;19.76;56.47;101529.22;5060863;28;20056;-81
2022/04/14 09:05:02;;;;;;;25.77;20.60;;;;;;;20.17;56.06;101530.06;5061690;28;20053;-81
2022/04/14 09:07:31;;;;;;;25.40;20.17;;;;;;;20.54;55.23;101530.66;5062014;28;20056;-82
2022/04/14 09:09:58;;;;;;;24.02;20.55;;;;;;;20.17;55.50;101526.59;5062469;28;20045;-83
2022/04/14 09:12:24;;;;;;;25.67;21.27;;;;;;;19.12;58.09;101527.47;5061846;28;20053;-82
2022/04/14 09:14:51;;;;;;;23.83;19.20;;;;;;;19.94;57.56;101526.06;5059649;28;20045;-82
2022/04/14 09:17:19;;;;;;;25.02;21.15;;;;;;;19.79;56.91;101528.84;5062397;28;20109;-82
2022/04/14 09:19:47;;;;;;;27.25;20.10;;;;;;;19.83;57.11;101533.59;5063351;28;20049;-81
2022/04/14 09:22:15;;;;;;;25.88;20.88;;;;;;;20.04;56.46;101532.66;5065578;28;20049;-80
2022/04/14 09:24:45;;;;;;;26.35;22.10;;;;;;;19.89;56.87;101534.59;5066145;28;20059;-82
2022/04/14 09:27:25;;;;;;;25.77;20.13;;;;;;;20.27;57.10;101515.59;5068332;28;20132;-82
2022/04/14 09:29:54;;;;;;;29.30;22.33;;;;;;;19.75;57.23;101528.41;5074512;28;20407;-82
2022/04/14 09:32:31;;;;;;;29.25;23.70;;;;;;;19.36;58.27;101501.56;5073290;28;20044;-82
2022/04/14 09:38:16;;;;;;;27.05;22.55;;;;;;;19.55;58.42;101515.00;5077319;28;20045;-81
2022/04/14 09:40:50;;;;;;;28.90;21.45;;;;;;;19.53;58.53;101505.59;5077368;28;20044;-83
2022/04/14 09:43:18;;;;;;;27.73;21.75;;;;;;;19.27;58.95;101502.72;5079218;28;20101;-84
2022/04/14 09:45:49;;;;;;;27.80;22.13;;;;;;;19.31;59.39;101518.06;5078616;28;20057;-83
2022/04/14 09:48:25;;;;;;;30.95;21.77;;;;;;;19.35;59.97;101519.31;5076804;28;20029;-82
2022/04/14 09:50:52;;;;;;;29.38;22.05;;;;;;;19.46;58.52;101502.03;5075630;28;20049;-82
2022/04/14 09:53:23;;;;;;;26.05;21.23;;;;;;;19.38;58.41;101489.72;5075225;28;20055;-83
2022/04/14 09:55:58;;;;;;;24.35;18.52;;;;;;;19.22;57.65;101513.91;5072537;28;20049;-82
2022/04/14 09:58:27;;;;;;;26.52;20.02;;;;;;;19.32;56.88;101490.50;5072711;28;20057;-81
2022/04/14 10:01:06;;;;;;;26.25;21.10;;;;;;;19.55;56.57;101501.72;5073885;28;20041;-81
2022/04/14 10:03:35;;;;;;;24.27;19.08;;;;;;;19.22;56.56;101487.38;5071828;28;20144;-80
2022/04/14 10:06:09;;;;;;;27.98;20.20;;;;;;;19.51;57.45;101500.47;5074375;28;20033;-82
2022/04/14 10:08:50;;;;;;;27.95;19.45;;;;;;;19.92;55.49;101490.91;5073069;28;20049;-84
2022/04/14 10:11:28;;;;;;;24.65;19.48;;;;;;;19.90;55.66;101488.44;5074520;28;20068;-80
2022/04/14 10:14:11;;;;;;;30.15;21.38;;;;;;;19.68;56.03;101502.81;5074426;28;20055;-83
2022/04/14 10:16:47;;;;;;;28.67;22.83;;;;;;;20.02;55.56;101486.06;5072881;28;20056;-81
2022/04/14 10:19:18;;;;;;;27.23;22.73;;;;;;;19.73;56.30;101465.88;5071919;28;20103;-82
2022/04/14 10:21:47;;;;;;;28.58;23.15;;;;;;;20.08;54.98;101470.16;5066614;28;20053;-81
2022/04/14 10:24:19;;;;;;;31.88;25.15;;;;;;;19.76;56.35;101486.75;5065151;28;20523;-82
2022/04/14 10:27:13;;;;;;;;;;;;;;;;;;;;;
2022/04/14 10:29:44;;;;;;;33.60;28.27;;;;;;;19.10;55.65;101470.31;5061628;28;20139;-82
2022/04/14 10:32:12;;;;;;;31.05;26.10;;;;;;;19.43;56.13;101460.75;5062788;28;20049;-82
2022/04/14 10:34:45;;;;;;;30.65;25.50;;;;;;;20.21;54.01;101453.44;5068250;28;20104;-83
2022/04/14 10:37:19;;;;;;;34.85;27.15;;;;;;;20.27;52.64;101457.97;5061468;28;20051;-82
2022/04/14 10:39:48;;;;;;;32.85;25.10;;;;;;;20.38;54.20;101445.94;5061288;28;20056;-82
2022/04/14 10:42:25;;;;;;;32.33;25.40;;;;;;;20.48;52.73;101464.97;5060699;28;20049;-82
2022/04/14 10:44:54;;;;;;;29.80;24.17;;;;;;;20.53;52.80;101467.88;5061201;28;20045;-82
2022/04/14 10:47:38;;;;;;;28.65;23.40;;;;;;;20.79;51.82;101467.94;5060244;28;20049;-82
2022/04/14 10:50:05;;;;;;;26.55;22.63;;;;;;;20.43;51.48;101456.78;5060280;28;20049;-83
2022/04/14 10:52:35;;;;;;;27.50;21.25;;;;;;;20.33;52.19;101453.66;5059892;28;20489;-82
2022/04/14 10:55:03;;;;;;;22.90;19.20;;;;;;;20.24;51.60;101458.34;5060699;28;20056;-82
2022/04/14 10:57:42;;;;;;;22.50;19.15;;;;;;;20.40;51.81;101454.53;5060319;28;20071;-83
2022/04/14 11:00:38;;;;;;;24.75;21.50;;;;;;;20.60;53.20;101458.06;5059446;28;20110;-82
2022/04/14 11:03:11;;;;;;;25.30;19.17;;;;;;;20.42;51.49;101455.16;5059301;28;20132;-82
2022/04/14 11:05:53;;;;;;;22.25;17.98;;;;;;;20.55;50.39;101452.53;5060106;28;20224;-83
2022/04/14 11:08:29;;;;;;;23.00;17.73;;;;;;;20.87;50.02;101445.59;5059395;28;20099;-83
2022/04/14 11:11:15;;;;;;;25.38;19.60;;;;;;;20.28;52.48;101438.34;5059424;28;20045;-80
2022/04/14 11:14:11;;;;;;;25.83;18.67;;;;;;;19.89;52.94;101447.78;5060029;28;20053;-81
2022/04/14 11:16:47;;;;;;;25.30;18.20;;;;;;;19.95;52.42;101450.66;5059271;28;20551;-83
2022/04/14 11:19:30;;;;;;;23.80;19.23;;;;;;;19.64;52.20;101443.16;5058461;28;20048;-82
2022/04/14 11:22:07;;;;;;;22.15;18.15;;;;;;;19.58;52.65;101430.66;5059854;28;20099;-82
2022/04/14 11:24:54;;;;;;;25.40;18.08;;;;;;;19.86;52.13;101428.75;5060534;28;20261;-81
2022/04/14 11:27:39;;;;;;;21.70;17.48;;;;;;;20.21;51.46;101419.72;5059876;28;20045;-82
2022/04/14 11:30:41;;;;;;;25.13;17.70;;;;;;;20.08;50.60;101442.75;5060049;28;20045;-83
2022/04/14 11:33:15;;;;;;;22.27;17.58;;;;;;;20.60;49.59;101447.44;5058247;28;20049;-81
2022/04/14 11:39:00;;;;;;;26.88;17.90;;;;;;;21.09;48.37;101452.38;5056465;28;20136;-82
2022/04/14 11:41:46;;;;;;;22.17;15.70;;;;;;;20.75;48.04;101444.59;5059098;28;20041;-83
2022/04/14 11:44:20;;;;;;;18.45;14.00;;;;;;;20.87;46.69;101430.47;5058478;28;20049;-83
2022/04/14 11:46:54;;;;;;;19.75;15.43;;;;;;;20.42;48.01;101431.22;5059566;28;20057;-83
2022/04/14 11:49:24;;;;;;;23.58;17.48;;;;;;;20.44;49.45;101423.88;5052262;28;20608;-82